This is the latest recevied weather packets stored in our database for station/object IU1OLT-5. If no packets are shown the sender has not sent any weather packets the latest 10 day(s).
| Time | Temp. | Humidity | Pressure | Rain* | Wind** | Luminosity | Snow |
|---|---|---|---|---|---|---|---|
| 1777999379 | 16.67° C | 90% | 1012.2 hPa | 0 mm | - | 143 W/m² | - |
| 1777998478 | 16.67° C | 90% | 1012.7 hPa | 0 mm | - | 106 W/m² | - |
| 1777997578 | 17.22° C | 88% | 1012.7 hPa | 0 mm | - | 248 W/m² | - |
| 1777996678 | 17.22° C | 91% | 1012.5 hPa | 0 mm | - | 106 W/m² | - |
| 1777995778 | 16.11° C | 90% | 1013 hPa | 0 mm | - | 178 W/m² | - |
| 1777994878 | 16.11° C | 93% | 1012.8 hPa | 0 mm | - | 145 W/m² | - |
| 1777993978 | 16.11° C | 91% | 1012.8 hPa | 0 mm | - | 197 W/m² | - |
| 1777993077 | 16.67° C | 92% | 1012.8 hPa | 0 mm | - | 176 W/m² | - |
| 1777992177 | 17.22° C | 88% | 1012.8 hPa | 0 mm | - | 208 W/m² | - |
| 1777991277 | 17.22° C | 87% | 1012.9 hPa | 0 mm | - | 309 W/m² | - |
| 1777990377 | 17.22° C | 85% | 1012.8 hPa | 0 mm | - | 411 W/m² | - |
| 1777989476 | 17.78° C | 86% | 1013 hPa | 0 mm | - | 193 W/m² | - |
| 1777988576 | 17.78° C | 86% | 1012.9 hPa | 0 mm | - | 337 W/m² | - |
| 1777987676 | 16.67° C | 88% | 1012.8 hPa | 0 mm | - | 410 W/m² | - |
| 1777986776 | 16.67° C | 88% | 1012.8 hPa | 0 mm | - | 408 W/m² | - |
| 1777985876 | 17.78° C | 89% | 1013.1 hPa | 0 mm | - | 302 W/m² | - |
| 1777984976 | 17.78° C | 87% | 1013 hPa | 0 mm | - | 631 W/m² | - |
| 1777984076 | 17.22° C | 89% | 1013 hPa | 0 mm | - | 481 W/m² | - |
| 1777983176 | 16.67° C | 89% | 1013 hPa | 0 mm | - | 374 W/m² | - |
| 1777982275 | 17.78° C | 86% | 1012.9 hPa | 0 mm | - | 642 W/m² | - |
| 1777981375 | 17.78° C | 88% | 1012.9 hPa | 0 mm | - | 593 W/m² | - |
| 1777980475 | 17.22° C | 89% | 1012.9 hPa | 0 mm | - | 438 W/m² | - |
| 1777979574 | 17.22° C | 89% | 1012.8 hPa | 0 mm | - | 841 W/m² | - |
| 1777978674 | 16.11° C | 92% | 1012.8 hPa | 0 mm | - | 625 W/m² | - |
| 1777977774 | 16.67° C | 92% | 1012.5 hPa | 0 mm | - | 939 W/m² | - |
* Rain latest hour (hover to see other rain measurements)
** Current wind speed in m/s (hover to see current wind gust speed)